Northway, Alaska
Current Conditions -  °F | °C
As of 12:53 AM on Thursday 23 Oct 2014 (Local Time) from PAOR Reporting Station
Light Snow Light Snow  
Wind Chill: 18°   Ceiling: 2700
Heat Index: 26°   Visibility: 7mi
Dew Point: 23°   Wind: 7mph
Humidity: 88%   Direction: 310°NW
Pressure: 29.57"   Gusts: NA
Location:  62.95°N, 141.93°W
Report Text: PAOR 230853Z 31006KT 7SM -SN BKN027 OVC034 M03/M05 A2957 RMK AO2 SLP043 T10331050 410111044 51015
Loading
Personal Weather Stations






























Interactive Weather Map New forecast layout! Learn more

10-Day Weather Forecast

Advertisements
Track Severe Weather on mobile